Time;durP1;ratioP1;P1;durP2;ratioP2;P2;SDS_P1;SDS_P2;PMS_P1;PMS_P2;Temp;Humidity;BMP_temperature;BMP_pressure;BME280_temperature;BME280_humidity;BME280_pressure;Samples;Min_cycle;Max_cycle;Signal;HPM_P1;HPM_P2
2021/07/18 00:01:26;;;;;;;21.63;15.13;;;20.20;99.90;;;;;;5113830;28;20383;-64
2021/07/18 00:03:52;;;;;;;23.23;14.93;;;20.20;99.90;;;;;;5113889;28;20108;-64
2021/07/18 00:06:18;;;;;;;25.25;14.88;;;20.20;99.90;;;;;;5113904;28;20038;-64
2021/07/18 00:08:43;;;;;;;21.00;14.50;;;20.20;99.90;;;;;;5113812;28;20028;-63
2021/07/18 00:11:09;;;;;;;22.00;14.68;;;20.20;99.90;;;;;;5113944;28;20030;-62
2021/07/18 00:13:35;;;;;;;26.77;15.10;;;20.10;99.90;;;;;;5113800;28;20028;-63
2021/07/18 00:16:00;;;;;;;19.92;13.95;;;20.00;99.90;;;;;;5113704;28;20099;-64
2021/07/18 00:18:26;;;;;;;22.67;14.00;;;20.00;99.90;;;;;;5095100;28;20039;-64
2021/07/18 00:20:52;;;;;;;18.73;13.27;;;19.90;99.90;;;;;;5113603;28;20019;-63
2021/07/18 00:23:18;;;;;;;16.02;13.70;;;19.90;99.90;;;;;;5095332;28;20074;-63
2021/07/18 00:25:44;;;;;;;;;;;19.90;99.90;;;;;;5114050;28;20103;-63
2021/07/18 00:28:10;;;;;;;21.38;13.57;;;19.80;99.90;;;;;;5113727;28;19935;-63
2021/07/18 00:30:36;;;;;;;18.35;12.80;;;19.80;99.90;;;;;;5113398;28;20461;-63
2021/07/18 00:33:04;;;;;;;17.73;12.80;;;20.00;99.90;;;;;;5113494;28;20115;-63
2021/07/18 00:35:29;;;;;;;20.48;12.70;;;19.90;99.90;;;;;;5094886;28;20034;-63
2021/07/18 00:37:55;;;;;;;19.27;12.63;;;19.80;99.90;;;;;;5113349;28;20024;-62
2021/07/18 00:40:20;;;;;;;21.73;12.25;;;19.80;99.90;;;;;;5113257;28;20051;-63
2021/07/18 00:42:46;;;;;;;17.77;11.80;;;19.80;99.90;;;;;;5113444;28;20499;-62
2021/07/18 00:45:12;;;;;;;18.77;12.85;;;19.70;99.90;;;;;;5113106;28;20068;-63
2021/07/18 00:47:39;;;;;;;17.00;11.45;;;19.60;99.90;;;;;;5113270;28;20035;-63
2021/07/18 00:50:09;;;;;;;16.38;12.38;;;19.60;99.90;;;;;;5094833;28;20114;-63
2021/07/18 00:52:35;;;;;;;19.70;12.75;;;19.50;99.90;;;;;;5113228;28;20047;-63
2021/07/18 00:55:00;;;;;;;20.13;12.35;;;19.50;99.90;;;;;;5113246;28;20016;-63
2021/07/18 00:57:26;;;;;;;16.85;12.27;;;19.50;99.90;;;;;;5112954;28;20031;-63
2021/07/18 00:59:52;;;;;;;;;;;19.40;99.90;;;;;;5113775;28;20050;-63
2021/07/18 01:02:18;;;;;;;15.75;11.63;;;19.50;99.90;;;;;;5114148;28;19904;-63
2021/07/18 01:04:43;;;;;;;18.25;12.43;;;19.40;99.90;;;;;;5114157;28;20077;-63
2021/07/18 01:07:09;;;;;;;14.45;10.82;;;19.40;99.90;;;;;;5113851;28;20028;-63
2021/07/18 01:09:36;;;;;;;16.05;10.75;;;19.40;99.90;;;;;;5114034;28;20095;-62
2021/07/18 01:12:02;;;;;;;16.17;10.85;;;19.40;99.90;;;;;;5113058;28;20314;-63
2021/07/18 01:14:28;;;;;;;13.60;10.05;;;19.40;99.90;;;;;;5113179;28;20110;-63
2021/07/18 01:16:54;;;;;;;15.00;10.20;;;19.40;99.90;;;;;;5113002;28;20062;-63
2021/07/18 01:19:21;;;;;;;13.70;10.18;;;19.30;99.90;;;;;;5112711;28;20027;-63
2021/07/18 01:21:58;;;;;;;;;;;19.50;99.90;;;;;;5113212;28;20024;-63
2021/07/18 01:24:24;;;;;;;13.25;9.32;;;19.50;99.90;;;;;;5112816;28;20363;-63
2021/07/18 01:26:49;;;;;;;;;;;19.40;99.90;;;;;;5113165;28;20414;-63
2021/07/18 01:29:15;;;;;;;13.70;7.75;;;19.40;99.90;;;;;;5112823;28;19911;-63
2021/07/18 01:31:41;;;;;;;12.55;8.43;;;19.30;99.90;;;;;;5112697;28;20077;-63
2021/07/18 01:34:07;;;;;;;12.88;7.80;;;19.30;99.90;;;;;;5112663;28;20028;-63
2021/07/18 01:36:32;;;;;;;12.35;7.15;;;19.20;99.90;;;;;;5112629;28;20027;-63
2021/07/18 01:38:58;;;;;;;10.13;6.75;;;19.20;99.90;;;;;;5113076;28;20467;-63
2021/07/18 01:41:23;;;;;;;11.63;7.35;;;19.10;99.90;;;;;;5112807;28;20034;-63
2021/07/18 01:43:49;;;;;;;12.40;6.97;;;19.00;99.90;;;;;;5112672;28;20019;-63
2021/07/18 01:46:15;;;;;;;11.65;6.65;;;19.00;99.90;;;;;;5114775;28;20088;-63
2021/07/18 01:48:41;;;;;;;11.93;6.55;;;18.90;99.90;;;;;;5116375;28;20050;-63
2021/07/18 01:51:07;;;;;;;11.35;6.25;;;18.90;99.90;;;;;;5116307;28;20023;-63
2021/07/18 01:53:32;;;;;;;11.18;6.43;;;18.80;99.90;;;;;;5116291;28;20441;-63
2021/07/18 01:55:58;;;;;;;10.70;6.20;;;18.80;99.90;;;;;;5116212;28;20049;-63
2021/07/18 01:58:28;;;;;;;11.13;6.10;;;18.80;99.90;;;;;;5116118;28;20115;-63
2021/07/18 02:00:54;;;;;;;9.82;5.32;;;18.80;99.90;;;;;;5116096;28;20024;-63
2021/07/18 02:03:19;;;;;;;7.95;4.97;;;18.70;99.90;;;;;;5116055;28;20365;-63
2021/07/18 02:05:45;;;;;;;7.32;4.85;;;18.80;99.90;;;;;;5097672;28;20024;-62
2021/07/18 02:08:10;;;;;;;9.82;4.63;;;18.70;99.90;;;;;;5116237;28;20519;-63
2021/07/18 02:10:36;;;;;;;10.43;5.13;;;18.70;99.90;;;;;;5097667;28;20472;-63
2021/07/18 02:13:02;;;;;;;6.75;4.40;;;18.70;99.90;;;;;;5116328;28;20070;-63
2021/07/18 02:15:27;;;;;;;6.05;3.95;;;18.70;99.90;;;;;;5115671;28;20368;-63
2021/07/18 02:17:53;;;;;;;11.95;5.25;;;18.70;99.90;;;;;;5115534;28;20077;-63
2021/07/18 02:20:20;;;;;;;11.32;5.45;;;18.60;99.90;;;;;;5116100;28;20128;-63
2021/07/18 02:22:47;;;;;;;9.20;4.15;;;18.60;99.90;;;;;;5115592;28;20023;-63
2021/07/18 02:25:18;;;;;;;7.40;4.47;;;18.60;99.90;;;;;;5115724;28;20072;-63
2021/07/18 02:27:43;;;;;;;6.70;4.75;;;18.60;99.90;;;;;;5115401;28;20110;-64
2021/07/18 02:30:12;;;;;;;10.10;4.07;;;18.60;99.90;;;;;;5115419;28;20104;-64
2021/07/18 02:32:38;;;;;;;10.13;4.10;;;18.60;99.90;;;;;;5115435;28;20039;-63
2021/07/18 02:35:06;;;;;;;10.95;4.32;;;18.60;99.90;;;;;;5115354;28;20032;-63
2021/07/18 02:37:32;;;;;;;8.82;4.68;;;18.60;99.90;;;;;;5115733;28;20053;-63
2021/07/18 02:39:58;;;;;;;8.45;4.07;;;18.70;99.90;;;;;;5115269;28;20091;-63
2021/07/18 02:42:23;;;;;;;10.25;3.92;;;18.70;99.90;;;;;;5115170;28;20031;-63
2021/07/18 02:44:49;;;;;;;7.10;4.32;;;18.60;99.90;;;;;;5115314;28;20016;-63
2021/07/18 02:47:15;;;;;;;6.93;4.20;;;18.60;99.90;;;;;;5096772;28;20535;-63
2021/07/18 02:49:40;;;;;;;8.50;4.10;;;18.50;99.90;;;;;;5115214;28;20101;-63
2021/07/18 02:52:08;;;;;;;6.32;3.78;;;18.50;99.90;;;;;;5115405;28;20374;-63
2021/07/18 02:54:35;;;;;;;10.65;4.80;;;18.40;99.90;;;;;;5115040;28;20024;-63
2021/07/18 02:57:00;;;;;;;8.18;4.18;;;18.40;99.90;;;;;;5114981;28;20098;-64
2021/07/18 02:59:26;;;;;;;5.30;3.75;;;18.30;99.90;;;;;;5115307;28;20491;-63
2021/07/18 03:01:51;;;;;;;10.43;4.75;;;18.30;99.90;;;;;;5096933;28;20024;-63
2021/07/18 03:04:17;;;;;;;7.82;3.67;;;18.20;99.90;;;;;;5116332;28;20102;-63
2021/07/18 03:06:43;;;;;;;8.13;3.70;;;18.20;99.90;;;;;;5116087;28;20139;-63
2021/07/18 03:09:09;;;;;;;9.45;4.50;;;18.20;99.90;;;;;;5114971;28;20078;-63
2021/07/18 03:11:35;;;;;;;11.02;3.92;;;18.20;99.90;;;;;;5114918;28;20050;-63
2021/07/18 03:14:00;;;;;;;15.00;4.68;;;18.10;99.90;;;;;;5114796;28;20063;-63
2021/07/18 03:16:26;;;;;;;9.50;3.65;;;18.10;99.90;;;;;;5114740;28;20070;-63
2021/07/18 03:18:51;;;;;;;6.15;3.42;;;18.00;99.90;;;;;;5114923;28;20028;-63
2021/07/18 03:21:17;;;;;;;7.95;3.47;;;18.00;99.90;;;;;;5115555;28;20028;-63
2021/07/18 03:23:42;;;;;;;7.70;3.72;;;18.00;99.90;;;;;;5115321;28;20361;-63
2021/07/18 03:26:08;;;;;;;8.23;3.25;;;18.00;99.90;;;;;;5114624;28;20054;-63
2021/07/18 03:28:34;;;;;;;8.35;3.42;;;17.90;99.90;;;;;;5114873;28;20050;-63
2021/07/18 03:31:00;;;;;;;6.32;3.60;;;17.90;99.90;;;;;;5114453;28;20023;-63
2021/07/18 03:33:25;;;;;;;4.40;3.20;;;17.80;99.90;;;;;;5096072;28;20028;-63
2021/07/18 03:35:52;;;;;;;6.75;3.75;;;17.80;99.90;;;;;;5114520;28;20034;-62
2021/07/18 03:38:19;;;;;;;6.30;3.10;;;17.80;99.90;;;;;;5096018;28;20058;-62
2021/07/18 03:40:44;;;;;;;8.27;3.72;;;17.70;99.90;;;;;;5114898;28;20455;-62
2021/07/18 03:43:10;;;;;;;5.15;3.13;;;17.60;99.90;;;;;;5114153;28;20051;-63
2021/07/18 03:45:35;;;;;;;8.02;3.72;;;17.60;99.90;;;;;;5113927;28;20047;-63
2021/07/18 03:48:01;;;;;;;10.73;4.32;;;17.50;99.90;;;;;;5114244;28;20426;-63
2021/07/18 03:50:27;;;;;;;5.70;3.80;;;17.40;99.90;;;;;;5114427;28;20059;-63
2021/07/18 03:52:53;;;;;;;5.03;3.15;;;17.40;99.90;;;;;;5095811;28;20054;-63
2021/07/18 03:55:19;;;;;;;8.70;4.20;;;17.30;99.90;;;;;;5113941;28;20132;-62
2021/07/18 03:57:45;;;;;;;8.10;3.33;;;17.30;99.90;;;;;;5113730;28;20484;-63
2021/07/18 04:00:12;;;;;;;8.95;3.63;;;17.20;99.90;;;;;;5113824;28;20451;-63
2021/07/18 04:02:37;;;;;;;5.95;3.67;;;17.20;99.90;;;;;;5113748;28;20031;-63
2021/07/18 04:05:03;;;;;;;7.53;3.42;;;17.20;99.90;;;;;;5113888;28;20024;-63
2021/07/18 04:07:32;;;;;;;8.13;3.28;;;17.20;99.90;;;;;;5113922;28;20073;-63
2021/07/18 04:10:00;;;;;;;4.75;3.67;;;17.20;99.90;;;;;;5114131;28;20012;-63
2021/07/18 04:12:25;;;;;;;4.82;3.08;;;17.20;99.90;;;;;;5113939;28;20503;-63
2021/07/18 04:14:51;;;;;;;8.07;3.95;;;17.30;99.90;;;;;;5113758;28;20032;-63
2021/07/18 04:17:17;;;;;;;7.85;3.55;;;17.30;99.90;;;;;;5113735;28;20027;-63
2021/07/18 04:19:42;;;;;;;10.05;3.97;;;17.30;99.90;;;;;;5113649;28;20401;-63
2021/07/18 04:22:08;;;;;;;8.52;4.15;;;17.30;99.90;;;;;;5113622;28;20019;-63
2021/07/18 04:24:34;;;;;;;8.40;3.70;;;17.30;99.90;;;;;;5113517;28;20524;-63
2021/07/18 04:26:59;;;;;;;6.20;3.40;;;17.40;99.90;;;;;;5113355;28;20065;-63
2021/07/18 04:29:25;;;;;;;6.43;3.50;;;17.40;99.90;;;;;;5113641;28;20032;-64
2021/07/18 04:31:51;;;;;;;7.60;3.60;;;17.40;99.90;;;;;;5113292;28;20024;-63
2021/07/18 04:34:18;;;;;;;5.53;3.13;;;17.40;99.90;;;;;;5095005;28;20030;-63
2021/07/18 04:36:44;;;;;;;5.28;3.42;;;17.40;99.90;;;;;;5113247;28;20032;-63
2021/07/18 04:39:10;;;;;;;8.18;4.32;;;17.50;99.90;;;;;;5113522;28;20055;-63
2021/07/18 04:41:37;;;;;;;4.05;2.92;;;17.50;99.90;;;;;;5113722;28;20051;-63
2021/07/18 04:44:04;;;;;;;5.82;3.25;;;17.50;99.90;;;;;;5113219;28;20034;-63
2021/07/18 04:46:30;;;;;;;5.55;3.22;;;17.50;99.90;;;;;;5094541;28;20388;-63
2021/07/18 04:48:55;;;;;;;5.80;3.25;;;17.50;99.90;;;;;;5113351;28;20031;-63
2021/07/18 04:51:21;;;;;;;6.15;3.20;;;17.50;99.90;;;;;;5113401;28;20095;-63
2021/07/18 04:53:56;;;;;;;6.55;3.58;;;17.60;99.90;;;;;;5113183;28;20088;-63
2021/07/18 04:56:24;;;;;;;8.23;3.30;;;17.60;99.90;;;;;;5094832;28;20077;-63
2021/07/18 04:58:50;;;;;;;6.15;3.10;;;17.60;99.90;;;;;;5095079;28;20028;-63
2021/07/18 05:01:16;;;;;;;7.88;3.92;;;17.70;99.90;;;;;;5113027;28;20026;-63
2021/07/18 05:03:42;;;;;;;10.77;3.83;;;17.70;99.90;;;;;;5094894;28;20487;-63
2021/07/18 05:06:07;;;;;;;15.07;3.25;;;17.70;99.90;;;;;;5113351;28;20480;-63
2021/07/18 05:08:34;;;;;;;6.45;3.42;;;17.80;99.90;;;;;;5113188;28;20036;-63
2021/07/18 05:11:01;;;;;;;10.25;3.65;;;17.80;99.90;;;;;;5094734;28;20054;-63
2021/07/18 05:13:26;;;;;;;5.05;2.97;;;17.80;99.90;;;;;;5113118;28;20460;-63
2021/07/18 05:15:52;;;;;;;6.03;3.58;;;17.80;99.90;;;;;;5113179;28;20074;-63
2021/07/18 05:18:18;;;;;;;6.15;3.30;;;17.80;99.90;;;;;;5094658;28;20035;-65
2021/07/18 05:20:44;;;;;;;7.35;3.28;;;17.80;99.90;;;;;;5114458;28;20038;-63
2021/07/18 05:23:10;;;;;;;8.23;3.35;;;17.80;99.90;;;;;;5116834;28;20020;-63
2021/07/18 05:25:37;;;;;;;7.82;3.58;;;17.80;99.90;;;;;;5116887;28;20028;-63
2021/07/18 05:28:06;;;;;;;6.85;3.10;;;17.90;99.90;;;;;;5116989;28;20411;-63
2021/07/18 05:30:32;;;;;;;5.80;3.30;;;17.90;99.90;;;;;;5116813;28;20035;-63
2021/07/18 05:32:57;;;;;;;13.63;3.92;;;17.90;99.90;;;;;;5116870;28;20027;-63
2021/07/18 05:35:23;;;;;;;4.75;3.33;;;18.00;99.90;;;;;;5116591;28;20471;-63
2021/07/18 05:37:50;;;;;;;5.88;3.55;;;18.00;99.90;;;;;;5116618;28;20165;-63
2021/07/18 05:40:16;;;;;;;10.00;3.55;;;18.10;99.90;;;;;;5118417;28;20065;-63
2021/07/18 05:42:42;;;;;;;9.52;3.33;;;18.10;99.90;;;;;;5116554;28;20410;-63
2021/07/18 05:45:09;;;;;;;;;;;18.20;99.90;;;;;;5116897;28;20046;-64
2021/07/18 05:47:35;;;;;;;4.63;2.97;;;18.40;99.90;;;;;;5116770;28;19919;-63
2021/07/18 05:50:03;;;;;;;3.80;2.80;;;18.40;99.90;;;;;;5116276;28;20253;-64
2021/07/18 05:52:28;;;;;;;4.28;3.17;;;18.40;99.90;;;;;;5116226;28;20023;-64
2021/07/18 05:54:55;;;;;;;7.40;2.95;;;18.40;99.90;;;;;;5116350;28;20023;-65
2021/07/18 05:57:21;;;;;;;7.68;2.80;;;18.40;99.90;;;;;;5116549;28;20071;-64
2021/07/18 05:59:47;;;;;;;5.78;2.88;;;18.40;99.90;;;;;;5116524;28;20031;-64
2021/07/18 06:02:15;;;;;;;5.03;2.72;;;18.40;99.90;;;;;;5116689;28;20038;-64
2021/07/18 06:04:41;;;;;;;6.03;2.63;;;18.50;99.90;;;;;;5116482;28;20486;-64
2021/07/18 06:07:06;;;;;;;5.60;3.22;;;18.50;99.90;;;;;;5098000;28;20053;-64
2021/07/18 06:09:32;;;;;;;8.35;3.30;;;18.50;99.90;;;;;;5116418;28;20403;-65
2021/07/18 06:11:58;;;;;;;5.60;3.08;;;18.50;99.90;;;;;;5116017;28;20103;-65
2021/07/18 06:14:23;;;;;;;4.88;2.88;;;18.50;99.90;;;;;;5115975;28;20391;-65
2021/07/18 06:16:49;;;;;;;7.43;2.88;;;18.60;99.90;;;;;;5116002;28;20027;-65
2021/07/18 06:19:14;;;;;;;12.60;2.75;;;18.70;99.90;;;;;;5097882;28;20031;-64
2021/07/18 06:21:40;;;;;;;5.50;2.50;;;18.60;99.90;;;;;;5116256;28;20045;-64
2021/07/18 06:24:06;;;;;;;8.20;2.80;;;18.70;99.90;;;;;;5116383;28;20028;-64
2021/07/18 06:26:32;;;;;;;3.63;1.70;;;18.80;99.90;;;;;;5116116;28;20024;-63
2021/07/18 06:29:00;;;;;;;;;;;18.80;99.90;;;;;;5116270;28;20023;-65
2021/07/18 06:31:26;;;;;;;3.78;2.20;;;18.80;99.90;;;;;;5116155;28;19954;-65
2021/07/18 06:33:51;;;;;;;8.63;2.63;;;18.90;99.90;;;;;;5116562;28;20357;-65
2021/07/18 06:36:17;;;;;;;6.05;2.50;;;19.00;99.90;;;;;;5115674;28;20044;-65
2021/07/18 06:38:43;;;;;;;3.28;2.17;;;19.00;99.90;;;;;;5097199;28;20034;-64
2021/07/18 06:41:08;;;;;;;6.05;1.98;;;19.00;99.90;;;;;;5115961;28;20108;-64
2021/07/18 06:43:34;;;;;;;5.65;2.20;;;19.10;99.90;;;;;;5115336;28;20480;-64
2021/07/18 06:46:00;;;;;;;4.45;2.08;;;19.10;99.90;;;;;;5115340;28;20034;-64
2021/07/18 06:48:25;;;;;;;3.30;1.80;;;19.20;99.90;;;;;;5115615;28;20107;-64
2021/07/18 06:50:51;;;;;;;3.67;2.05;;;19.30;99.90;;;;;;5115486;28;20453;-64
2021/07/18 06:53:17;;;;;;;3.95;2.33;;;19.40;99.90;;;;;;5115553;28;20032;-64
2021/07/18 06:55:43;;;;;;;5.70;2.28;;;19.50;99.90;;;;;;5115448;28;20032;-63
2021/07/18 06:58:09;;;;;;;3.50;2.20;;;19.60;99.90;;;;;;5115811;28;20521;-64
2021/07/18 07:00:35;;;;;;;3.92;1.80;;;19.70;99.90;;;;;;5115607;28;20028;-64
2021/07/18 07:03:00;;;;;;;5.05;1.85;;;19.80;99.90;;;;;;5115808;28;20460;-63
2021/07/18 07:05:26;;;;;;;5.25;2.20;;;19.80;99.90;;;;;;5115170;28;20107;-64
2021/07/18 07:07:52;;;;;;;4.10;1.70;;;19.90;99.90;;;;;;5115663;28;20061;-64
2021/07/18 07:10:19;;;;;;;8.35;2.83;;;20.00;99.90;;;;;;5115299;28;20035;-63
2021/07/18 07:12:46;;;;;;;10.68;4.35;;;20.00;99.90;;;;;;5114775;28;20068;-64
2021/07/18 07:15:13;;;;;;;4.05;2.17;;;20.10;99.90;;;;;;5115056;28;20020;-64
2021/07/18 07:17:39;;;;;;;4.35;1.85;;;20.10;99.90;;;;;;5115114;28;20058;-65
2021/07/18 07:20:09;;;;;;;5.20;2.50;;;20.10;99.90;;;;;;5114855;28;20416;-63
2021/07/18 07:22:36;;;;;;;5.22;1.80;;;20.20;99.90;;;;;;5114661;28;20034;-65
2021/07/18 07:25:04;;;;;;;4.63;2.10;;;20.20;99.90;;;;;;5114700;28;20026;-63
2021/07/18 07:27:30;;;;;;;4.53;2.20;;;20.20;99.90;;;;;;5115055;28;20011;-63
2021/07/18 07:29:55;;;;;;;7.18;2.17;;;20.30;99.90;;;;;;5114665;28;20027;-63
2021/07/18 07:32:21;;;;;;;5.75;1.90;;;20.40;99.90;;;;;;5114953;28;20024;-64
2021/07/18 07:34:47;;;;;;;3.13;1.77;;;20.40;99.90;;;;;;5115120;28;20486;-64
2021/07/18 07:37:12;;;;;;;3.83;2.03;;;20.50;99.90;;;;;;5096323;28;20043;-63
2021/07/18 07:39:40;;;;;;;5.00;1.83;;;20.50;99.90;;;;;;5114719;28;20038;-64
2021/07/18 07:42:06;;;;;;;4.38;2.38;;;20.60;99.90;;;;;;5114313;28;20464;-63
2021/07/18 07:44:32;;;;;;;;;;;20.70;99.90;;;;;;5114171;28;20036;-64
2021/07/18 07:46:57;;;;;;;4.55;2.10;;;20.80;99.90;;;;;;5113799;28;19918;-62
2021/07/18 07:49:23;;;;;;;4.00;1.88;;;20.80;99.90;;;;;;5114005;28;20020;-63
2021/07/18 07:51:49;;;;;;;4.10;1.75;;;20.90;99.90;;;;;;5113946;28;20102;-64
2021/07/18 07:54:14;;;;;;;31.55;4.40;;;20.90;99.90;;;;;;5114887;28;20352;-64
2021/07/18 07:56:40;;;;;;;3.40;2.03;;;21.10;99.90;;;;;;5114084;28;20125;-63
2021/07/18 07:59:06;;;;;;;8.18;2.13;;;21.20;99.90;;;;;;5114244;28;20444;-63
2021/07/18 08:01:31;;;;;;;5.10;2.33;;;21.40;99.90;;;;;;5113937;28;20030;-64
2021/07/18 08:03:57;;;;;;;7.35;1.90;;;21.50;99.90;;;;;;5113987;28;20028;-63
2021/07/18 08:06:22;;;;;;;3.67;1.65;;;21.50;99.90;;;;;;5113917;28;20027;-61
2021/07/18 08:08:48;;;;;;;8.85;2.60;;;21.60;99.90;;;;;;5114242;28;20031;-60
2021/07/18 08:11:14;;;;;;;4.38;2.05;;;21.80;99.90;;;;;;5114211;28;20479;-63
2021/07/18 08:13:40;;;;;;;5.78;2.10;;;21.90;99.90;;;;;;5114407;28;20027;-63
2021/07/18 08:16:07;;;;;;;6.32;1.90;;;22.00;99.90;;;;;;5114104;28;20318;-66
2021/07/18 08:18:32;;;;;;;6.72;1.92;;;23.10;99.90;;;;;;5113837;28;20167;-64
2021/07/18 08:20:58;;;;;;;;;;;25.00;99.90;;;;;;5114459;28;20028;-63
2021/07/18 08:23:24;;;;;;;4.80;2.00;;;27.20;98.10;;;;;;5114074;28;19949;-64
2021/07/18 08:25:49;;;;;;;3.35;2.00;;;28.60;95.80;;;;;;5114285;28;20023;-66
2021/07/18 08:28:15;;;;;;;4.07;1.60;;;30.50;93.00;;;;;;5113688;28;20040;-63
2021/07/18 08:30:42;;;;;;;3.78;1.67;;;32.20;88.60;;;;;;5113089;28;20057;-64
2021/07/18 08:33:08;;;;;;;4.50;1.85;;;32.60;83.50;;;;;;5113400;28;20470;-63
2021/07/18 08:35:34;;;;;;;3.33;1.58;;;33.90;79.70;;;;;;5113439;28;20024;-63
2021/07/18 08:38:00;;;;;;;3.22;1.60;;;35.10;75.10;;;;;;5113263;28;20042;-63
2021/07/18 08:40:25;;;;;;;2.38;1.70;;;35.10;72.10;;;;;;5113630;28;20103;-63
2021/07/18 08:42:51;;;;;;;2.38;1.58;;;35.30;71.30;;;;;;5095672;28;20223;-64
2021/07/18 08:45:17;;;;;;;2.22;1.55;;;35.40;69.90;;;;;;5113519;28;20028;-64
2021/07/18 08:47:42;;;;;;;2.25;1.45;;;35.90;67.70;;;;;;5113306;28;20472;-64
2021/07/18 08:50:10;;;;;;;4.28;1.83;;;35.60;68.20;;;;;;5113375;28;20053;-64
2021/07/18 08:52:36;;;;;;;3.58;1.80;;;35.80;67.00;;;;;;5113714;28;20036;-64
2021/07/18 08:55:03;;;;;;;6.43;2.08;;;36.60;65.70;;;;;;5116219;28;20497;-65
2021/07/18 08:57:29;;;;;;;5.47;2.00;;;37.30;64.00;;;;;;5117272;28;20051;-65
2021/07/18 08:59:55;;;;;;;5.07;1.60;;;37.50;62.40;;;;;;5117426;28;20378;-65
2021/07/18 09:02:21;;;;;;;4.72;1.90;;;38.00;61.40;;;;;;5117480;28;20023;-66
2021/07/18 09:04:47;;;;;;;3.53;1.77;;;37.80;59.80;;;;;;5099414;28;20024;-65
2021/07/18 09:07:17;;;;;;;4.20;2.05;;;38.00;59.80;;;;;;5117163;28;20448;-65
2021/07/18 09:09:45;;;;;;;3.25;1.50;;;37.20;60.50;;;;;;5117549;28;20109;-65
2021/07/18 09:12:11;;;;;;;5.03;2.00;;;37.50;59.80;;;;;;5117881;28;20020;-64
2021/07/18 09:14:43;;;;;;;3.55;1.73;;;37.80;58.60;;;;;;5117617;28;20482;-65
2021/07/18 09:17:18;;;;;;;4.80;2.10;;;37.60;59.50;;;;;;5117236;28;20080;-65
2021/07/18 09:19:44;;;;;;;;;;;37.50;59.10;;;;;;5117835;28;20059;-65
2021/07/18 09:22:17;;;;;;;4.93;2.00;;;37.90;58.80;;;;;;5117552;28;20228;-65
2021/07/18 09:24:46;;;;;;;5.85;2.30;;;38.30;58.10;;;;;;5117331;28;20383;-65
2021/07/18 09:27:27;;;;;;;3.47;1.88;;;39.20;58.40;;;;;;5116916;28;20027;-65
2021/07/18 09:30:19;;;;;;;2.60;1.52;;;39.70;56.20;;;;;;5117173;28;20197;-65
2021/07/18 09:32:48;;;;;;;3.97;1.95;;;38.20;57.00;;;;;;5116869;28;20023;-65
2021/07/18 09:35:17;;;;;;;4.47;2.42;;;38.00;57.00;;;;;;5116825;28;20357;-64
2021/07/18 09:37:45;;;;;;;3.28;1.98;;;36.90;57.60;;;;;;5116577;28;20016;-65
2021/07/18 09:40:13;;;;;;;3.83;1.90;;;36.40;58.30;;;;;;5116837;28;20019;-65
2021/07/18 09:42:48;;;;;;;3.03;1.65;;;36.60;58.30;;;;;;5117097;28;20028;-65
2021/07/18 09:45:14;;;;;;;;;;;36.50;58.00;;;;;;5117862;28;20019;-65
2021/07/18 09:48:02;;;;;;;3.40;1.73;;;36.60;58.30;;;;;;5116402;28;19911;-65
2021/07/18 09:50:30;;;;;;;5.25;2.20;;;36.60;58.60;;;;;;5117036;28;20069;-64
2021/07/18 09:53:20;;;;;;;4.22;2.03;;;37.30;57.80;;;;;;5116493;28;20020;-65
2021/07/18 09:56:00;;;;;;;3.10;1.90;;;38.70;56.50;;;;;;5098082;28;20051;-64
2021/07/18 09:58:26;;;;;;;3.85;1.80;;;39.70;54.50;;;;;;5116644;28;20026;-65
2021/07/18 10:00:53;;;;;;;7.32;2.03;;;39.30;55.10;;;;;;5116076;28;20016;-64
2021/07/18 10:03:22;;;;;;;8.25;2.03;;;37.90;55.70;;;;;;5116157;28;20030;-64
2021/07/18 10:06:03;;;;;;;3.53;2.40;;;37.50;55.80;;;;;;5115084;28;20099;-65
2021/07/18 10:08:30;;;;;;;5.88;1.80;;;37.80;56.40;;;;;;5097603;28;20024;-64
2021/07/18 10:10:56;;;;;;;6.15;1.73;;;38.70;55.80;;;;;;5116036;28;20024;-64
2021/07/18 10:13:22;;;;;;;5.20;1.80;;;39.80;54.30;;;;;;5116160;28;20028;-64
2021/07/18 10:15:48;;;;;;;5.45;1.98;;;38.50;55.00;;;;;;5116245;28;20035;-64
2021/07/18 10:18:14;;;;;;;6.90;2.17;;;38.20;54.30;;;;;;5115783;28;20023;-64
2021/07/18 10:20:41;;;;;;;5.72;1.85;;;37.90;55.70;;;;;;5115585;28;20472;-64
2021/07/18 10:23:07;;;;;;;3.88;1.98;;;37.10;56.10;;;;;;5115818;28;20022;-64
2021/07/18 10:25:34;;;;;;;4.80;1.90;;;36.00;57.50;;;;;;5116141;28;20622;-65
2021/07/18 10:27:59;;;;;;;3.88;1.70;;;36.00;58.00;;;;;;5115664;28;20062;-65
2021/07/18 10:30:28;;;;;;;3.10;1.90;;;36.50;56.60;;;;;;5115627;28;20028;-65
2021/07/18 10:32:55;;;;;;;4.07;2.05;;;35.30;58.20;;;;;;5115441;28;20028;-65
2021/07/18 10:35:25;;;;;;;5.70;1.90;;;35.70;58.50;;;;;;5115436;28;20027;-65
2021/07/18 10:37:51;;;;;;;5.25;2.13;;;35.60;57.40;;;;;;5115833;28;20035;-65
2021/07/18 10:40:21;;;;;;;6.28;2.45;;;35.10;59.00;;;;;;5115488;28;20053;-65
2021/07/18 10:42:48;;;;;;;4.30;1.77;;;34.80;59.40;;;;;;5115654;28;20031;-65
2021/07/18 10:45:25;;;;;;;5.32;2.08;;;35.00;59.10;;;;;;5115847;28;20099;-64
2021/07/18 10:48:05;;;;;;;5.55;2.75;;;35.00;59.10;;;;;;5115321;28;20031;-64
2021/07/18 10:50:43;;;;;;;6.45;3.50;;;35.90;58.80;;;;;;5115246;28;20027;-65
2021/07/18 10:53:26;;;;;;;3.33;2.00;;;37.50;57.40;;;;;;5115232;28;20024;-64
2021/07/18 10:55:54;;;;;;;3.47;1.80;;;37.20;56.10;;;;;;5115644;28;20027;-64
2021/07/18 10:58:38;;;;;;;2.92;1.70;;;36.50;56.50;;;;;;5115414;28;20031;-64
2021/07/18 11:01:24;;;;;;;5.07;2.20;;;34.90;59.10;;;;;;5115480;28;20020;-64
2021/07/18 11:03:49;;;;;;;7.43;3.08;;;35.00;61.70;;;;;;5114731;28;20031;-65
2021/07/18 11:06:30;;;;;;;4.63;2.63;;;36.50;59.70;;;;;;5114997;28;20484;-64
2021/07/18 11:09:22;;;;;;;3.67;2.35;;;37.50;57.30;;;;;;5115028;28;20023;-64
2021/07/18 11:11:55;;;;;;;7.70;2.72;;;37.70;56.10;;;;;;5114937;28;20049;-64
2021/07/18 11:14:35;;;;;;;4.43;2.67;;;37.80;55.80;;;;;;5115390;28;20533;-64
2021/07/18 11:17:10;;;;;;;4.20;2.58;;;36.20;56.80;;;;;;5114738;28;20031;-64
2021/07/18 11:19:37;;;;;;;4.40;2.03;;;34.60;58.80;;;;;;5114418;28;20453;-64
2021/07/18 11:22:03;;;;;;;5.80;2.47;;;33.30;61.00;;;;;;5115303;28;20054;-64
2021/07/18 11:24:55;;;;;;;5.05;2.10;;;32.20;63.50;;;;;;5114732;28;20020;-64
2021/07/18 11:27:28;;;;;;;6.45;2.15;;;31.30;64.20;;;;;;5114590;28;20069;-65
2021/07/18 11:29:56;;;;;;;4.80;2.60;;;30.70;66.10;;;;;;5115017;28;20042;-65
2021/07/18 11:32:23;;;;;;;5.30;2.22;;;30.30;66.60;;;;;;5114478;28;20023;-64
2021/07/18 11:34:49;;;;;;;6.28;2.80;;;30.00;67.80;;;;;;5114225;28;20118;-64
2021/07/18 11:37:15;;;;;;;5.18;2.38;;;29.90;68.20;;;;;;5114379;28;20047;-64
2021/07/18 11:39:43;;;;;;;4.40;2.20;;;29.40;68.50;;;;;;5114744;28;20035;-64
2021/07/18 11:42:11;;;;;;;5.97;2.38;;;29.10;69.80;;;;;;5114549;28;20023;-66
2021/07/18 11:44:39;;;;;;;7.13;2.17;;;28.90;70.00;;;;;;5114311;28;20019;-65
2021/07/18 11:47:08;;;;;;;10.63;2.80;;;28.20;71.10;;;;;;5114434;28;20100;-65
2021/07/18 11:49:36;;;;;;;4.32;2.67;;;28.00;72.50;;;;;;5095986;28;20032;-65
2021/07/18 11:52:03;;;;;;;6.63;2.92;;;27.70;74.20;;;;;;5114457;28;20034;-66
2021/07/18 11:54:29;;;;;;;7.55;3.00;;;27.60;74.80;;;;;;5114281;28;20027;-66
2021/07/18 11:56:56;;;;;;;8.55;2.50;;;27.70;76.10;;;;;;5113829;28;20104;-65
2021/07/18 11:59:24;;;;;;;4.47;2.42;;;27.80;75.20;;;;;;5095618;28;20023;-65
2021/07/18 12:01:52;;;;;;;4.03;2.50;;;27.90;75.10;;;;;;5114205;28;20027;-65
2021/07/18 12:04:22;;;;;;;6.93;2.80;;;27.70;76.10;;;;;;5114075;28;20020;-65
2021/07/18 12:06:59;;;;;;;8.68;3.00;;;27.60;76.40;;;;;;5114123;28;20026;-65
2021/07/18 12:09:29;;;;;;;;;;;27.60;76.30;;;;;;5114432;28;20095;-65
2021/07/18 12:11:57;;;;;;;7.88;2.83;;;27.50;77.10;;;;;;5114279;28;19939;-65
2021/07/18 12:14:25;;;;;;;6.32;2.50;;;27.70;76.50;;;;;;5114449;28;20390;-65
2021/07/18 12:16:56;;;;;;;6.15;2.45;;;27.70;77.50;;;;;;5114041;28;20016;-65
2021/07/18 12:19:25;;;;;;;4.47;3.08;;;27.60;77.40;;;;;;5113785;28;20023;-65
2021/07/18 12:21:52;;;;;;;5.68;2.63;;;27.70;77.70;;;;;;5114304;28;20020;-65
2021/07/18 12:24:18;;;;;;;6.45;3.42;;;27.60;78.00;;;;;;5113898;28;20372;-65
2021/07/18 12:26:46;;;;;;;7.40;3.42;;;27.70;77.50;;;;;;5113385;28;20023;-64
2021/07/18 12:29:14;;;;;;;6.75;5.15;;;27.40;77.90;;;;;;5113770;28;20027;-65
2021/07/18 12:31:42;;;;;;;5.15;2.97;;;27.40;78.90;;;;;;5113525;28;20024;-64
2021/07/18 12:34:09;;;;;;;8.07;3.38;;;27.40;78.50;;;;;;5113520;28;20032;-65
2021/07/18 12:36:56;;;;;;;7.85;3.70;;;27.50;78.80;;;;;;5113648;28;20392;-65
2021/07/18 12:39:24;;;;;;;8.50;3.83;;;27.70;79.90;;;;;;5113627;28;20052;-65
2021/07/18 12:41:51;;;;;;;7.53;3.77;;;27.70;78.60;;;;;;5074285;28;20411;-65
2021/07/18 12:44:22;;;;;;;7.25;3.63;;;27.60;78.60;;;;;;5092891;28;20032;-65
2021/07/18 12:46:49;;;;;;;5.97;3.58;;;27.60;78.10;;;;;;5092773;28;20028;-65